Time;durP1;ratioP1;P1;durP2;ratioP2;P2;SDS_P1;SDS_P2;PMS_P1;PMS_P2;Temp;Humidity;BMP_temperature;BMP_pressure;BME280_temperature;BME280_humidity;BME280_pressure;Samples;Min_cycle;Max_cycle;Signal;HPM_P1;HPM_P2
2021/12/03 00:02:08;;;;;;;28.05;12.80;;;;;;;3.07;100.00;99852.81;5072907;28;20048;-72
2021/12/03 00:04:34;;;;;;;21.03;12.67;;;;;;;3.11;100.00;99855.56;5073061;28;20115;-69
2021/12/03 00:07:00;;;;;;;25.30;13.17;;;;;;;2.72;100.00;99797.28;5072649;28;20055;-70
2021/12/03 00:09:25;;;;;;;21.23;10.68;;;;;;;2.97;100.00;99870.94;5072859;28;20027;-71
2021/12/03 00:11:51;;;;;;;23.43;10.73;;;;;;;2.90;100.00;99867.19;5072582;28;20028;-70
2021/12/03 00:14:16;;;;;;;28.90;14.03;;;;;;;2.86;100.00;99865.22;5072552;28;20025;-72
2021/12/03 00:16:42;;;;;;;24.63;13.03;;;;;;;2.71;100.00;99857.56;5072304;28;20130;-72
2021/12/03 00:19:07;;;;;;;28.43;13.90;;;;;;;2.19;100.00;99778.06;5072308;28;20024;-70
2021/12/03 00:21:33;;;;;;;34.03;14.63;;;;;;;2.57;100.00;99832.97;5072836;28;20070;-72
2021/12/03 00:23:59;;;;;;;29.67;14.85;;;;;;;2.76;100.00;99857.84;5072158;28;20056;-72
2021/12/03 00:26:24;;;;;;;26.27;15.10;;;;;;;2.81;100.00;99856.44;5072699;28;20393;-72
2021/12/03 00:28:50;;;;;;;31.27;14.80;;;;;;;2.73;100.00;99856.00;5072355;28;20557;-73
2021/12/03 00:31:16;;;;;;;31.00;15.75;;;;;;;2.64;100.00;99830.00;5072242;28;20553;-72
2021/12/03 00:33:43;;;;;;;29.10;14.90;;;;;;;2.59;100.00;99854.28;5037342;28;20038;-70
2021/12/03 00:36:10;;;;;;;24.53;15.80;;;;;;;2.32;100.00;99864.63;5072415;28;20058;-70
2021/12/03 00:38:43;;;;;;;32.27;16.83;;;;;;;2.05;100.00;99864.69;5072318;28;20069;-71
2021/12/03 00:41:12;;;;;;;31.13;16.37;;;;;;;2.14;100.00;99881.34;5072072;28;20508;-74
2021/12/03 00:43:42;;;;;;;26.83;15.98;;;;;;;1.84;100.00;99843.91;5071987;28;20038;-70
2021/12/03 00:46:09;;;;;;;29.97;17.17;;;;;;;2.05;100.00;99879.09;5068185;28;20024;-72
2021/12/03 00:48:35;;;;;;;28.57;16.77;;;;;;;2.10;100.00;99870.94;5072498;28;20036;-69
2021/12/03 00:51:01;;;;;;;29.83;16.87;;;;;;;2.15;100.00;99886.50;5072016;28;20029;-69
2021/12/03 00:53:26;;;;;;;35.40;17.93;;;;;;;2.25;100.00;99873.53;5072106;28;20028;-70
2021/12/03 00:55:52;;;;;;;32.37;19.50;;;;;;;2.32;100.00;99882.47;5071811;28;20075;-72
2021/12/03 00:58:17;;;;;;;32.47;17.33;;;;;;;2.17;100.00;99856.94;5072056;28;20405;-72
2021/12/03 01:00:43;;;;;;;28.07;16.23;;;;;;;2.16;100.00;99862.81;5065726;28;20626;-72
2021/12/03 01:03:08;;;;;;;27.17;16.47;;;;;;;2.36;100.00;99873.34;5072131;28;20490;-73
2021/12/03 01:05:34;;;;;;;28.60;16.57;;;;;;;2.33;100.00;99873.13;5053960;28;20078;-71
2021/12/03 01:08:00;;;;;;;30.90;15.43;;;;;;;2.42;100.00;99872.03;5071672;28;20104;-71
2021/12/03 01:10:27;;;;;;;27.30;16.73;;;;;;;2.17;100.00;99867.13;5071681;28;20103;-75
2021/12/03 01:12:54;;;;;;;28.53;16.73;;;;;;;2.16;100.00;99847.53;5071287;28;20387;-72
2021/12/03 01:15:23;;;;;;;30.87;17.33;;;;;;;2.29;100.00;99844.03;5071274;28;20032;-74
2021/12/03 01:17:50;;;;;;;29.00;16.77;;;;;;;2.41;100.00;99860.06;5071572;28;20024;-73
2021/12/03 01:20:16;;;;;;;28.80;16.43;;;;;;;2.24;100.00;99800.50;5072086;28;20028;-73
2021/12/03 01:22:45;;;;;;;25.50;15.77;;;;;;;2.58;100.00;99850.88;5072101;28;20127;-69
2021/12/03 01:25:15;;;;;;;26.25;14.93;;;;;;;2.41;100.00;99856.66;5072052;28;20074;-73
2021/12/03 01:27:42;;;;;;;27.93;15.53;;;;;;;2.39;100.00;99855.66;5071934;28;20028;-73
2021/12/03 01:30:10;;;;;;;24.30;14.33;;;;;;;2.34;100.00;99852.84;5072065;28;20023;-72
2021/12/03 01:32:37;;;;;;;25.63;15.27;;;;;;;2.04;100.00;99850.19;5061834;28;20035;-70
2021/12/03 01:35:03;;;;;;;27.57;16.03;;;;;;;2.04;100.00;99849.34;5048594;28;20026;-71
2021/12/03 01:37:29;;;;;;;26.70;15.03;;;;;;;2.05;100.00;99851.97;5040285;28;20488;-71
2021/12/03 01:39:55;;;;;;;34.57;20.70;;;;;;;1.95;100.00;99839.47;5042043;28;20036;-71
2021/12/03 01:42:20;;;;;;;22.53;14.83;;;;;;;1.87;100.00;99850.84;5042222;28;20037;-72
2021/12/03 01:44:46;;;;;;;27.23;15.00;;;;;;;1.73;100.00;99868.69;5040618;28;20105;-70
2021/12/03 01:47:12;;;;;;;24.83;16.70;;;;;;;1.84;100.00;99868.47;5041674;28;20079;-70
2021/12/03 01:49:37;;;;;;;30.00;16.33;;;;;;;2.00;100.00;99860.13;5041729;28;20053;-72
2021/12/03 01:52:03;;;;;;;26.87;16.13;;;;;;;1.77;100.00;99808.69;5039930;28;20478;-72
2021/12/03 01:54:29;;;;;;;27.53;15.93;;;;;;;1.89;100.00;99829.78;5041395;28;20594;-71
2021/12/03 01:56:55;;;;;;;25.70;15.60;;;;;;;1.99;100.00;99827.81;5024412;28;20105;-71
2021/12/03 01:59:20;;;;;;;27.00;15.80;;;;;;;2.09;100.00;99825.03;5005199;28;20037;-71
2021/12/03 02:01:46;;;;;;;25.23;15.40;;;;;;;1.97;100.00;99781.00;5028133;28;20077;-73
2021/12/03 02:04:12;;;;;;;27.70;16.03;;;;;;;2.37;100.00;99803.78;5033770;28;20478;-72
2021/12/03 02:06:38;;;;;;;27.67;15.03;;;;;;;2.49;100.00;99812.09;5016459;28;20051;-68
2021/12/03 02:09:04;;;;;;;34.47;15.07;;;;;;;2.54;100.00;99786.91;5051495;28;20035;-68
2021/12/03 02:11:30;;;;;;;22.10;13.53;;;;;;;2.46;100.00;99758.44;5050559;28;20548;-72
2021/12/03 02:13:56;;;;;;;32.60;16.40;;;;;;;2.79;100.00;99806.16;5051906;28;20037;-74
2021/12/03 02:16:22;;;;;;;22.33;13.97;;;;;;;2.77;100.00;99792.44;5051465;28;20087;-73
2021/12/03 02:18:49;;;;;;;24.27;13.90;;;;;;;2.51;100.00;99740.88;5047754;28;20044;-72
2021/12/03 02:21:16;;;;;;;24.27;14.70;;;;;;;2.67;100.00;99747.72;5051527;28;20033;-74
2021/12/03 02:23:42;;;;;;;27.37;15.87;;;;;;;2.94;100.00;99768.81;5051004;28;20506;-72
2021/12/03 02:26:07;;;;;;;25.27;14.00;;;;;;;2.87;100.00;99753.94;5051102;28;20025;-70
2021/12/03 02:28:37;;;;;;;23.50;14.85;;;;;;;3.02;100.00;99761.56;5051383;28;20115;-72
2021/12/03 02:31:04;;;;;;;23.77;15.15;;;;;;;3.06;100.00;99761.81;5051403;28;20063;-70
2021/12/03 02:33:31;;;;;;;26.13;15.70;;;;;;;2.87;100.00;99757.38;5051230;28;20032;-71
2021/12/03 02:35:57;;;;;;;27.47;16.10;;;;;;;2.56;100.00;99763.25;5051348;28;20032;-77
2021/12/03 02:38:23;;;;;;;26.67;15.87;;;;;;;2.56;100.00;99742.88;5050966;28;20025;-74
2021/12/03 02:40:50;;;;;;;28.37;15.77;;;;;;;2.55;100.00;99766.59;5051044;28;20094;-77
2021/12/03 02:43:16;;;;;;;24.10;16.60;;;;;;;2.49;100.00;99766.25;5051204;28;20029;-71
2021/12/03 02:45:42;;;;;;;27.90;15.80;;;;;;;2.49;100.00;99757.72;5051080;28;20024;-80
2021/12/03 02:48:08;;;;;;;29.63;15.73;;;;;;;2.49;100.00;99761.16;5051006;28;20029;-78
2021/12/03 02:50:33;;;;;;;27.43;15.77;;;;;;;2.16;100.00;99714.25;5051160;28;20027;-73
2021/12/03 02:53:00;;;;;;;25.40;16.20;;;;;;;2.65;100.00;99765.47;5050683;28;20029;-77
2021/12/03 02:55:26;;;;;;;28.03;15.93;;;;;;;2.34;100.00;99725.47;5050971;28;20053;-78
2021/12/03 02:57:52;;;;;;;29.17;14.40;;;;;;;2.68;100.00;99778.41;5050977;28;20032;-79
2021/12/03 03:00:20;;;;;;;23.60;14.20;;;;;;;2.66;100.00;99776.56;5050969;28;20021;-77
2021/12/03 03:02:46;;;;;;;22.05;13.32;;;;;;;2.59;100.00;99781.28;5050971;28;20406;-76
2021/12/03 03:05:14;;;;;;;23.33;13.60;;;;;;;2.52;100.00;99786.81;5050669;28;20048;-80
2021/12/03 03:07:40;;;;;;;21.57;13.47;;;;;;;2.33;100.00;99759.41;5050620;28;20093;-79
2021/12/03 03:10:09;;;;;;;21.03;13.27;;;;;;;2.48;100.00;99784.91;5051073;28;20061;-80
2021/12/03 03:12:36;;;;;;;19.73;12.57;;;;;;;2.37;100.00;99765.56;5050715;28;20036;-76
2021/12/03 03:15:02;;;;;;;25.00;14.30;;;;;;;2.43;100.00;99811.78;5050843;28;20029;-83
2021/12/03 03:17:30;;;;;;;28.30;14.27;;;;;;;2.25;100.00;99797.13;5050800;28;20107;-71
2021/12/03 03:19:56;;;;;;;29.83;16.83;;;;;;;2.19;100.00;99806.97;5050590;28;20475;-82
2021/12/03 03:22:22;;;;;;;34.03;15.37;;;;;;;2.09;100.00;99813.19;5050811;28;20475;-77
2021/12/03 03:24:47;;;;;;;29.93;16.30;;;;;;;2.00;100.00;99789.72;5054600;28;20071;-73
2021/12/03 03:27:15;;;;;;;26.93;16.43;;;;;;;2.06;100.00;99799.41;5054409;28;20029;-75
2021/12/03 03:29:42;;;;;;;30.60;17.63;;;;;;;2.03;100.00;99789.00;5054175;28;20025;-76
2021/12/03 03:32:09;;;;;;;28.03;15.00;;;;;;;2.00;100.00;99787.16;5054145;28;20025;-74
2021/12/03 03:34:34;;;;;;;30.63;15.13;;;;;;;2.07;100.00;99796.06;5054038;28;20112;-74
2021/12/03 03:37:00;;;;;;;22.80;14.23;;;;;;;1.74;100.00;99752.50;5054323;28;20116;-75
2021/12/03 03:39:25;;;;;;;22.90;13.33;;;;;;;2.06;100.00;99814.66;5054147;28;20514;-76
2021/12/03 03:41:51;;;;;;;24.70;13.83;;;;;;;2.06;100.00;99809.59;5054327;28;20025;-78
2021/12/03 03:44:16;;;;;;;23.03;13.70;;;;;;;2.07;100.00;99836.81;5053932;28;20033;-77
2021/12/03 03:46:44;;;;;;;21.97;13.80;;;;;;;1.94;100.00;99832.63;5054276;28;20021;-74
2021/12/03 03:49:09;;;;;;;22.70;13.87;;;;;;;1.90;100.00;99817.94;5053775;28;20029;-73
2021/12/03 03:51:36;;;;;;;21.67;13.93;;;;;;;1.94;100.00;99830.97;5054341;28;20524;-70
2021/12/03 03:54:02;;;;;;;21.20;13.37;;;;;;;1.88;100.00;99843.31;5053882;28;20056;-77
2021/12/03 03:56:29;;;;;;;27.97;14.53;;;;;;;1.81;100.00;99843.72;5053721;28;20028;-72
2021/12/03 03:58:55;;;;;;;20.80;13.37;;;;;;;1.70;100.00;99835.41;5053813;28;20021;-73
2021/12/03 04:01:21;;;;;;;21.80;12.80;;;;;;;1.64;100.00;99839.25;5046172;28;20438;-73
2021/12/03 04:03:46;;;;;;;20.73;13.83;;;;;;;1.58;100.00;99827.00;5065283;28;20040;-73
2021/12/03 04:06:16;;;;;;;21.67;12.40;;;;;;;1.71;100.00;99838.84;5063323;28;20108;-73
2021/12/03 04:08:44;;;;;;;23.33;13.43;;;;;;;1.75;100.00;99833.16;5052936;28;20116;-74
2021/12/03 04:11:10;;;;;;;22.43;14.10;;;;;;;1.72;100.00;99826.22;5034849;28;20382;-73
2021/12/03 04:13:36;;;;;;;22.57;13.40;;;;;;;1.71;100.00;99821.91;5052585;28;20402;-73
2021/12/03 04:16:02;;;;;;;23.97;13.50;;;;;;;1.66;100.00;99828.38;5034840;28;20025;-71
2021/12/03 04:18:27;;;;;;;22.37;13.73;;;;;;;1.71;100.00;99811.72;5052431;28;20090;-73
2021/12/03 04:20:53;;;;;;;24.13;14.53;;;;;;;1.97;100.00;99809.91;5034790;28;20029;-74
2021/12/03 04:23:20;;;;;;;31.50;23.33;;;;;;;1.88;100.00;99772.06;5052549;28;20033;-75
2021/12/03 04:25:47;;;;;;;29.80;18.57;;;;;;;2.24;100.00;99797.94;5052493;28;20040;-71
2021/12/03 04:28:13;;;;;;;25.23;16.03;;;;;;;2.44;100.00;99810.97;5051437;28;20029;-74
2021/12/03 04:30:40;;;;;;;24.27;14.33;;;;;;;2.47;100.00;99818.81;5035534;28;20517;-75
2021/12/03 04:33:06;;;;;;;20.90;13.77;;;;;;;2.34;100.00;99775.56;5053075;28;20025;-75
2021/12/03 04:35:32;;;;;;;24.70;15.67;;;;;;;2.41;100.00;99832.03;5052489;28;20040;-75
2021/12/03 04:37:58;;;;;;;24.33;15.77;;;;;;;2.34;100.00;99827.38;5053116;28;20415;-75
2021/12/03 04:40:24;;;;;;;31.53;15.23;;;;;;;2.34;100.00;99826.50;5053141;28;20029;-78
2021/12/03 04:42:50;;;;;;;27.23;16.47;;;;;;;2.30;100.00;99834.75;5053064;28;20468;-74
2021/12/03 04:45:18;;;;;;;32.90;17.97;;;;;;;2.35;100.00;99820.63;5052937;28;20601;-74
2021/12/03 04:47:45;;;;;;;29.80;16.90;;;;;;;2.43;100.00;99829.59;5052662;28;20025;-75
2021/12/03 04:50:13;;;;;;;36.27;20.07;;;;;;;2.50;100.00;99824.06;5053188;28;20037;-75
2021/12/03 04:52:39;;;;;;;38.80;22.77;;;;;;;2.35;100.00;99808.75;5052827;28;20051;-75
2021/12/03 04:55:05;;;;;;;29.00;16.27;;;;;;;1.82;100.00;99732.59;5052789;28;20036;-75
2021/12/03 04:57:31;;;;;;;22.23;13.93;;;;;;;2.32;100.00;99841.69;5052766;28;20032;-72
2021/12/03 04:59:57;;;;;;;19.10;13.93;;;;;;;2.34;100.00;99829.03;5017602;28;20091;-74
2021/12/03 05:02:24;;;;;;;20.37;12.80;;;;;;;2.31;100.00;99823.78;5052309;28;20536;-74
2021/12/03 05:04:53;;;;;;;17.70;11.47;;;;;;;2.32;100.00;99825.53;5052758;28;20037;-75
2021/12/03 05:10:03;;;;;;;20.83;13.10;;;;;;;2.29;100.00;99810.94;5052619;28;20032;-74
2021/12/03 05:12:31;;;;;;;20.57;12.00;;;;;;;2.51;100.00;99835.16;5052201;28;20451;-71
2021/12/03 05:14:57;;;;;;;18.63;12.43;;;;;;;2.26;100.00;99785.31;5052632;28;20044;-75
2021/12/03 05:17:22;;;;;;;27.40;13.93;;;;;;;2.54;100.00;99836.22;5052675;28;20025;-75
2021/12/03 05:19:48;;;;;;;26.03;14.07;;;;;;;2.63;100.00;99830.78;5052476;28;20032;-75
2021/12/03 05:22:14;;;;;;;24.97;14.20;;;;;;;2.62;100.00;99812.81;5052373;28;20051;-76
2021/12/03 05:24:45;;;;;;;20.70;13.57;;;;;;;2.79;100.00;99844.41;5052226;28;20392;-75
2021/12/03 05:27:11;;;;;;;22.33;13.15;;;;;;;2.92;100.00;99840.09;5052021;28;20431;-74
2021/12/03 05:29:36;;;;;;;25.70;14.00;;;;;;;2.97;100.00;99839.50;5052544;28;20134;-76
2021/12/03 05:32:02;;;;;;;33.30;20.13;;;;;;;3.07;100.00;99847.72;5047922;28;20478;-75
2021/12/03 05:34:28;;;;;;;26.05;14.90;;;;;;;3.19;100.00;99846.66;5052629;28;20093;-77
2021/12/03 05:36:54;;;;;;;23.77;16.58;;;;;;;2.98;100.00;99808.97;5036694;28;20026;-75
2021/12/03 05:39:19;;;;;;;28.05;16.13;;;;;;;3.19;100.00;99827.16;5032040;28;20048;-74
2021/12/03 05:41:45;;;;;;;20.55;14.68;;;;;;;3.48;100.00;99852.53;5038993;28;22691;-75
2021/12/03 05:44:10;;;;;;;20.88;13.85;;;;;;;3.56;100.00;99854.72;5051427;28;20453;-75
2021/12/03 05:46:36;;;;;;;22.85;13.60;;;;;;;3.53;100.00;99816.25;5049776;28;20100;-71
2021/12/03 05:49:02;;;;;;;21.27;12.50;;;;;;;3.95;100.00;99859.34;5051548;28;20025;-75
2021/12/03 05:51:30;;;;;;;28.95;12.85;;;;;;;4.00;100.00;99824.72;5051225;28;20028;-74
2021/12/03 05:53:55;;;;;;;21.75;11.85;;;;;;;4.37;100.00;99864.97;5051692;28;20035;-76
2021/12/03 05:56:21;;;;;;;17.40;10.88;;;;;;;4.53;100.00;99853.81;5051237;28;20036;-75
2021/12/03 05:58:48;;;;;;;21.20;11.40;;;;;;;4.66;100.00;99839.09;5051864;28;20025;-75
2021/12/03 06:01:14;;;;;;;20.08;11.93;;;;;;;4.91;100.00;99855.69;5033856;28;20040;-74
2021/12/03 06:03:39;;;;;;;17.45;11.70;;;;;;;5.02;100.00;99857.97;5051946;28;20056;-74
2021/12/03 06:06:05;;;;;;;15.05;9.85;;;;;;;5.29;100.00;99869.50;5051758;28;20031;-75
2021/12/03 06:08:30;;;;;;;19.58;9.90;;;;;;;5.29;100.00;99847.31;5051162;28;20032;-75
2021/12/03 06:10:55;;;;;;;18.15;9.68;;;;;;;5.47;100.00;99854.13;5036983;28;20039;-76
2021/12/03 06:13:21;;;;;;;18.90;9.57;;;;;;;5.86;100.00;99867.03;5031682;28;20033;-77
2021/12/03 06:15:47;;;;;;;13.52;8.40;;;;;;;6.12;100.00;99862.28;5031604;28;20026;-76
2021/12/03 06:18:12;;;;;;;14.25;8.10;;;;;;;6.27;100.00;99862.94;5037236;28;20033;-75
2021/12/03 06:20:38;;;;;;;11.57;7.15;;;;;;;6.37;100.00;99845.38;5039618;28;20029;-76
2021/12/03 06:23:03;;;;;;;12.60;7.10;;;;;;;6.63;100.00;99856.81;5040307;28;20028;-77
2021/12/03 06:25:29;;;;;;;10.48;6.45;;;;;;;6.76;100.00;99853.06;5036907;28;20029;-77
2021/12/03 06:27:57;;;;;;;11.40;5.90;;;;;;;6.89;100.00;99854.44;5045355;28;20031;-76
2021/12/03 06:30:26;;;;;;;11.52;5.95;;;;;;;7.01;100.00;99864.34;5043396;28;20111;-76
2021/12/03 06:32:52;;;;;;;12.02;5.78;;;;;;;6.92;100.00;99816.09;5047007;28;20147;-76
2021/12/03 06:35:18;;;;;;;13.50;5.07;;;;;;;7.34;100.00;99864.84;5040197;28;20033;-74
2021/12/03 06:37:46;;;;;;;9.38;5.15;;;;;;;7.53;100.00;99863.88;5040889;28;20394;-74
2021/12/03 06:40:16;;;;;;;7.35;4.88;;;;;;;7.67;100.00;99876.41;5040736;28;20120;-76
2021/12/03 06:42:42;;;;;;;7.78;4.53;;;;;;;7.89;100.00;99881.53;5045493;28;20057;-76
2021/12/03 06:45:10;;;;;;;10.98;4.93;;;;;;;8.02;100.00;99888.00;5040689;28;20072;-76
2021/12/03 06:47:35;;;;;;;10.15;5.20;;;;;;;8.10;100.00;99885.75;5041718;28;20029;-76
2021/12/03 06:50:03;;;;;;;10.35;4.35;;;;;;;8.17;100.00;99892.84;5041743;28;20032;-75
2021/12/03 06:52:29;;;;;;;11.93;3.90;;;;;;;8.39;100.00;99889.38;5041274;28;20039;-76
2021/12/03 06:54:58;;;;;;;8.68;3.70;;;;;;;8.56;100.00;99892.59;5044012;28;20060;-74
2021/12/03 06:57:24;;;;;;;9.18;3.40;;;;;;;8.78;100.00;99883.06;5042941;28;20037;-74
2021/12/03 06:59:50;;;;;;;9.45;3.67;;;;;;;8.96;100.00;99887.97;5045502;28;20063;-76
2021/12/03 07:02:15;;;;;;;10.07;3.47;;;;;;;9.18;100.00;99893.84;5044199;28;20408;-76
2021/12/03 07:04:42;;;;;;;9.55;4.13;;;;;;;9.34;100.00;99890.06;5042831;28;20052;-77
2021/12/03 07:07:08;;;;;;;6.97;4.00;;;;;;;9.60;100.00;99902.91;5046467;28;20033;-77
2021/12/03 07:09:33;;;;;;;7.30;3.72;;;;;;;9.65;100.00;99894.50;5048805;28;20470;-75
2021/12/03 07:12:02;;;;;;;9.70;3.58;;;;;;;9.77;100.00;99900.84;5048663;28;20033;-75
2021/12/03 07:14:27;;;;;;;9.88;3.95;;;;;;;9.90;100.00;99899.53;5041526;28;20032;-80
2021/12/03 07:16:59;;;;;;;9.52;3.58;;;;;;;10.02;100.00;99887.03;5035862;28;20030;-78
2021/12/03 07:19:24;;;;;;;8.55;3.72;;;;;;;9.81;100.00;99846.00;5033843;28;20029;-78
2021/12/03 07:21:50;;;;;;;9.43;3.63;;;;;;;10.19;100.00;99890.97;5049338;28;20036;-76
2021/12/03 07:24:17;;;;;;;10.07;3.47;;;;;;;10.28;100.00;99882.63;5054508;28;20467;-76
2021/12/03 07:26:42;;;;;;;8.02;3.17;;;;;;;10.58;100.00;99888.63;5037305;28;20137;-77
2021/12/03 07:29:08;;;;;;;9.05;2.85;;;;;;;10.79;100.00;99871.13;5021460;28;20550;-75
2021/12/03 07:31:33;;;;;;;9.88;2.72;;;;;;;10.94;100.00;99873.25;5054480;28;20051;-77
2021/12/03 07:33:59;;;;;;;7.03;2.50;;;;;;;11.22;100.00;99881.69;5053934;28;20108;-76
2021/12/03 07:36:26;;;;;;;6.20;2.33;;;;;;;11.34;100.00;99883.72;5053562;28;20091;-77
2021/12/03 07:38:52;;;;;;;5.22;2.50;;;;;;;11.24;100.00;99842.94;5034643;28;20075;-77
2021/12/03 07:41:17;;;;;;;10.75;3.13;;;;;;;11.64;100.00;99895.63;5033202;28;20026;-75
2021/12/03 07:43:43;;;;;;;10.98;3.10;;;;;;;11.59;100.00;99890.31;5033435;28;20033;-76
2021/12/03 07:46:09;;;;;;;8.50;2.97;;;;;;;11.62;100.00;99905.03;5033438;28;20411;-74
2021/12/03 07:48:36;;;;;;;8.70;3.40;;;;;;;11.62;100.00;99910.22;5033431;28;20449;-75
2021/12/03 07:51:02;;;;;;;10.02;3.28;;;;;;;11.73;100.00;99897.53;5032557;28;20036;-75
2021/12/03 07:53:29;;;;;;;6.07;2.72;;;;;;;11.93;100.00;99910.91;5041381;28;20029;-75
2021/12/03 07:55:55;;;;;;;10.20;2.85;;;;;;;11.95;100.00;99897.19;5041749;28;20108;-76
2021/12/03 07:58:20;;;;;;;7.10;2.47;;;;;;;12.25;100.00;99910.75;5048329;28;20124;-74
2021/12/03 08:00:47;;;;;;;6.30;2.97;;;;;;;12.32;99.64;99891.94;5051919;28;20041;-74
2021/12/03 08:03:13;;;;;;;7.65;2.70;;;;;;;12.34;98.90;99892.84;5045899;28;20029;-74
2021/12/03 08:05:41;;;;;;;7.40;2.53;;;;;;;12.57;98.13;99903.66;5033400;28;20546;-73
2021/12/03 08:08:07;;;;;;;6.00;2.10;;;;;;;12.65;97.20;99898.63;5016090;28;20033;-76
2021/12/03 08:10:34;;;;;;;11.13;2.33;;;;;;;12.58;97.43;99879.50;5032507;28;20445;-73
2021/12/03 08:13:00;;;;;;;5.07;1.90;;;;;;;12.76;97.12;99904.00;5035581;28;20485;-72
2021/12/03 08:15:26;;;;;;;7.38;2.80;;;;;;;12.87;96.90;99911.97;5044941;28;20099;-73
2021/12/03 08:17:52;;;;;;;5.50;2.20;;;;;;;12.86;96.61;99897.28;5035559;28;20037;-71
2021/12/03 08:20:18;;;;;;;6.55;2.05;;;;;;;12.97;95.79;99913.88;5051062;28;20025;-73
2021/12/03 08:22:44;;;;;;;8.57;2.45;;;;;;;12.99;95.57;99907.03;5036296;28;20025;-72
2021/12/03 08:25:10;;;;;;;7.78;2.33;;;;;;;13.07;94.24;99912.34;5032388;28;20036;-73
2021/12/03 08:27:36;;;;;;;9.60;2.72;;;;;;;13.16;95.00;99916.81;5043669;28;20025;-73
2021/12/03 08:30:04;;;;;;;7.80;2.60;;;;;;;13.23;95.15;99918.66;5046861;28;20112;-75
2021/12/03 08:32:30;;;;;;;7.85;2.58;;;;;;;13.25;94.62;99910.06;5047038;28;20466;-75
2021/12/03 08:34:56;;;;;;;7.10;2.80;;;;;;;13.35;94.82;99905.91;5035690;28;20029;-76
2021/12/03 08:37:21;;;;;;;5.93;2.60;;;;;;;13.38;93.10;99918.09;5043686;28;20025;-73
2021/12/03 08:39:47;;;;;;;7.28;2.47;;;;;;;13.43;93.75;99913.84;5034578;28;20041;-75
2021/12/03 08:42:18;;;;;;;4.28;2.20;;;;;;;13.53;93.08;99918.34;5033727;28;20025;-76
2021/12/03 08:44:45;;;;;;;6.78;2.25;;;;;;;13.62;92.68;99917.63;5035140;28;20116;-77
2021/12/03 08:47:11;;;;;;;9.27;2.95;;;;;;;13.71;94.39;99915.16;5031853;28;20022;-76
2021/12/03 08:50:00;;;;;;;8.75;2.97;;;;;;;13.84;93.24;99907.56;5031840;28;20036;-75
2021/12/03 08:52:32;;;;;;;7.78;3.05;;;;;;;13.97;92.57;99904.28;5030883;28;20092;-75
2021/12/03 08:54:58;;;;;;;7.95;2.97;;;;;;;14.05;91.58;99907.00;5031590;28;20041;-75
2021/12/03 08:57:32;;;;;;;9.13;2.75;;;;;;;13.99;90.94;99887.00;5031806;28;20044;-75
2021/12/03 09:00:05;;;;;;;10.32;2.75;;;;;;;14.04;90.35;99895.75;5033711;28;20021;-77
2021/12/03 09:02:30;;;;;;;6.25;2.40;;;;;;;14.10;91.11;99889.75;5012613;28;20049;-74
2021/12/03 09:04:56;;;;;;;7.40;2.22;;;;;;;14.16;90.51;99892.44;5031737;28;20048;-75
2021/12/03 09:07:21;;;;;;;7.25;2.88;;;;;;;14.35;89.24;99887.47;5051287;28;20483;-77
2021/12/03 09:09:47;;;;;;;8.27;2.20;;;;;;;14.50;88.79;99873.78;5034336;28;20033;-76
2021/12/03 09:12:13;;;;;;;7.80;2.33;;;;;;;14.52;88.48;99830.53;5051613;28;20079;-74
2021/12/03 09:14:43;;;;;;;7.55;2.45;;;;;;;14.83;87.20;99860.31;5043641;28;20084;-75
2021/12/03 09:22:45;;;;;;;7.00;2.00;;;;;;;15.11;85.03;99842.38;5009842;28;20072;-74
2021/12/03 09:25:16;;;;;;;4.07;1.90;;;;;;;15.18;84.24;99817.31;5007844;28;20073;-74
2021/12/03 09:27:42;;;;;;;8.55;2.40;;;;;;;15.34;83.23;99821.75;5007960;28;20143;-74
2021/12/03 09:30:12;;;;;;;7.35;2.42;;;;;;;15.45;81.87;99836.53;5009180;28;20038;-75
2021/12/03 09:32:38;;;;;;;6.57;2.50;;;;;;;15.43;80.95;99827.88;5008855;28;20026;-74
2021/12/03 09:35:04;;;;;;;5.80;1.73;;;;;;;15.58;80.69;99829.72;5008511;28;20057;-73
2021/12/03 09:37:30;;;;;;;5.95;1.90;;;;;;;15.64;80.47;99837.56;5006897;28;20116;-74
2021/12/03 09:40:00;;;;;;;6.28;2.40;;;;;;;15.72;79.77;99835.00;5009607;28;20046;-74
2021/12/03 09:42:26;;;;;;;7.05;2.10;;;;;;;15.73;79.87;99829.78;5009985;28;20030;-74
2021/12/03 09:44:52;;;;;;;6.43;1.65;;;;;;;15.89;78.28;99827.28;5009737;28;20542;-74
2021/12/03 09:47:19;;;;;;;4.25;1.77;;;;;;;15.82;77.48;99795.16;5009978;28;20046;-74
2021/12/03 09:49:46;;;;;;;5.63;1.85;;;;;;;16.12;76.07;99824.78;5007844;28;20033;-74
2021/12/03 09:54:45;;;;;;;4.20;1.37;;;;;;;16.10;72.07;99813.50;5007613;28;20624;-75
2021/12/03 09:57:20;;;;;;;5.85;1.35;;;;;;;15.96;74.39;99803.91;4992030;28;20077;-75
2021/12/03 10:18:59;;;;;;;11.85;1.70;;;;;;;16.64;70.72;99782.38;4950740;29;20522;-76
2021/12/03 10:22:13;;;;;;;7.03;1.50;;;;;;;16.84;69.16;99777.19;4951031;29;20031;-75
2021/12/03 10:51:59;;;;;;;4.45;1.33;;;;;;;17.21;64.95;99738.06;4993333;28;20038;-72
2021/12/03 14:46:08;;;;;;;10.20;3.40;;;;;;;14.42;82.77;99689.31;5014431;28;20117;-77
2021/12/03 14:56:11;;;;;;;5.78;2.40;;;;;;;14.30;84.73;99725.56;5029925;28;20033;-79
2021/12/03 14:58:55;;;;;;;9.93;3.17;;;;;;;14.28;85.14;99722.97;5012814;28;20399;-78
2021/12/03 15:01:47;;;;;;;5.25;1.92;;;;;;;14.19;85.64;99738.44;5030234;28;20030;-76
2021/12/03 15:07:04;;;;;;;7.20;2.35;;;;;;;14.11;87.55;99750.47;5014035;28;20037;-72
2021/12/03 15:09:34;;;;;;;3.45;1.58;;;;;;;14.10;87.88;99743.53;5030752;28;20091;-78
2021/12/03 15:25:14;;;;;;;6.63;1.73;;;;;;;13.98;89.29;99741.66;5035658;28;20549;-73
2021/12/03 15:56:58;;;;;;;8.85;2.45;;;;;;;13.91;88.85;99780.50;5033198;28;20087;-74
2021/12/03 16:05:11;;;;;;;9.95;2.35;;;;;;;13.85;88.71;99793.41;5045691;28;20087;-76
2021/12/03 16:24:07;;;;;;;6.55;1.95;;;;;;;13.25;88.73;99789.97;5033375;28;20040;-74
2021/12/03 16:46:07;;;;;;;6.53;2.13;;;;;;;12.92;91.60;99820.56;5010591;28;20096;-72
2021/12/03 16:53:48;;;;;;;9.10;1.90;;;;;;;12.93;94.26;99824.00;5004229;28;20044;-74
2021/12/03 16:56:23;;;;;;;9.65;2.95;;;;;;;12.94;94.38;99831.78;5007926;28;20500;-76
2021/12/03 16:58:49;;;;;;;7.03;2.50;;;;;;;12.75;93.90;99784.00;5009499;28;20026;-76
2021/12/03 17:04:11;;;;;;;7.40;2.10;;;;;;;12.94;93.67;99825.75;5009810;28;20028;-72
2021/12/03 17:57:39;;;;;;;10.40;1.70;;;;;;;12.84;95.90;99844.59;4893120;29;20556;-72
2021/12/03 17:59:59;;;;;;;7.28;1.80;;;;;;;12.75;96.56;99837.53;4893406;29;20037;-74
2021/12/03 18:02:35;;;;;;;6.00;1.73;;;;;;;12.77;96.97;99836.72;4893611;29;20036;-73
2021/12/03 18:56:18;;;;;;;9.63;1.97;;;;;;;12.59;100.00;99826.88;4991950;28;20037;-74
2021/12/03 18:58:56;;;;;;;10.10;2.38;;;;;;;12.67;99.79;99827.00;4992239;28;20692;-75
2021/12/03 19:01:28;;;;;;;6.75;2.05;;;;;;;12.58;99.77;99832.88;4991698;28;20069;-74
2021/12/03 19:04:06;;;;;;;11.85;2.35;;;;;;;12.38;99.35;99788.50;4992076;28;20026;-70
2021/12/03 19:06:38;;;;;;;7.72;2.20;;;;;;;12.65;99.35;99841.66;4992579;28;20081;-72
2021/12/03 19:09:07;;;;;;;11.63;2.20;;;;;;;12.64;99.46;99842.50;4992332;28;20038;-72
2021/12/03 19:11:59;;;;;;;;;;;;;;;12.63;99.45;99848.53;4992861;28;20449;-71
2021/12/03 19:14:21;;;;;;;6.07;1.77;;;;;;;12.57;99.44;99849.28;4990566;28;19913;-71
2021/12/03 19:16:47;;;;;;;8.70;1.80;;;;;;;12.65;98.96;99854.63;4959720;28;20093;-74
2021/12/03 19:19:15;;;;;;;6.82;2.20;;;;;;;12.66;98.81;99858.06;4989913;28;20038;-73
2021/12/03 19:21:43;;;;;;;8.35;2.10;;;;;;;12.64;98.88;99852.00;4990987;28;20125;-73
2021/12/03 19:24:11;;;;;;;11.13;2.53;;;;;;;12.60;98.31;99844.16;4990434;28;20088;-71
2021/12/03 19:26:43;;;;;;;8.52;1.90;;;;;;;12.69;98.11;99860.72;4998496;28;20507;-70
2021/12/03 19:29:11;;;;;;;10.13;2.40;;;;;;;12.70;98.16;99871.09;5016726;28;20033;-70
2021/12/03 19:31:38;;;;;;;7.10;1.85;;;;;;;12.61;97.87;99865.72;5032248;28;20041;-73
2021/12/03 19:34:04;;;;;;;8.20;2.38;;;;;;;12.65;98.03;99866.66;4990822;28;20057;-75
2021/12/03 19:36:32;;;;;;;6.68;1.98;;;;;;;12.66;97.83;99868.41;4991660;28;20128;-75
2021/12/03 19:38:59;;;;;;;9.88;2.83;;;;;;;12.76;97.79;99870.31;4994899;28;20441;-72